sensor_id;sensor_type;location;lat;lon;timestamp;temperature;humidity
41437;DHT22;27178;49.460;10.850;2023-06-19T00:01:59;27.00;46.30
41437;DHT22;27178;49.460;10.850;2023-06-19T00:04:27;26.90;46.80
41437;DHT22;27178;49.460;10.850;2023-06-19T00:06:56;26.90;46.70
41437;DHT22;27178;49.460;10.850;2023-06-19T00:09:24;26.90;46.40
41437;DHT22;27178;49.460;10.850;2023-06-19T00:11:54;26.90;46.80
41437;DHT22;27178;49.460;10.850;2023-06-19T00:14:22;26.90;46.90
41437;DHT22;27178;49.460;10.850;2023-06-19T00:16:51;26.90;46.20
41437;DHT22;27178;49.460;10.850;2023-06-19T00:19:20;26.90;46.50
41437;DHT22;27178;49.460;10.850;2023-06-19T00:21:48;26.90;46.10
41437;DHT22;27178;49.460;10.850;2023-06-19T00:24:17;26.90;45.90
41437;DHT22;27178;49.460;10.850;2023-06-19T00:26:45;26.90;45.50
41437;DHT22;27178;49.460;10.850;2023-06-19T00:29:15;26.80;45.40
41437;DHT22;27178;49.460;10.850;2023-06-19T00:31:44;26.80;45.70
41437;DHT22;27178;49.460;10.850;2023-06-19T00:34:12;26.80;45.70
41437;DHT22;27178;49.460;10.850;2023-06-19T00:36:40;26.80;45.30
41437;DHT22;27178;49.460;10.850;2023-06-19T00:39:09;26.80;45.30
41437;DHT22;27178;49.460;10.850;2023-06-19T00:41:38;26.80;45.30
41437;DHT22;27178;49.460;10.850;2023-06-19T00:44:07;26.70;45.60
41437;DHT22;27178;49.460;10.850;2023-06-19T00:46:38;26.70;45.70
41437;DHT22;27178;49.460;10.850;2023-06-19T00:49:08;26.70;45.40
41437;DHT22;27178;49.460;10.850;2023-06-19T00:51:37;26.70;45.50
41437;DHT22;27178;49.460;10.850;2023-06-19T00:54:05;26.60;45.80
41437;DHT22;27178;49.460;10.850;2023-06-19T00:56:37;26.60;45.80
41437;DHT22;27178;49.460;10.850;2023-06-19T00:59:11;26.60;45.90
41437;DHT22;27178;49.460;10.850;2023-06-19T01:01:42;26.50;45.70
41437;DHT22;27178;49.460;10.850;2023-06-19T01:04:11;26.50;45.70
41437;DHT22;27178;49.460;10.850;2023-06-19T01:06:53;26.50;45.80
41437;DHT22;27178;49.460;10.850;2023-06-19T01:09:28;26.40;45.70
41437;DHT22;27178;49.460;10.850;2023-06-19T01:12:08;26.40;45.80
41437;DHT22;27178;49.460;10.850;2023-06-19T01:14:48;26.30;46.00
41437;DHT22;27178;49.460;10.850;2023-06-19T01:17:18;26.30;46.00
41437;DHT22;27178;49.460;10.850;2023-06-19T01:19:47;26.30;45.90
41437;DHT22;27178;49.460;10.850;2023-06-19T01:22:25;26.20;45.90
41437;DHT22;27178;49.460;10.850;2023-06-19T01:24:53;26.20;45.60
41437;DHT22;27178;49.460;10.850;2023-06-19T01:27:22;26.20;45.80
41437;DHT22;27178;49.460;10.850;2023-06-19T01:29:51;26.10;45.90
41437;DHT22;27178;49.460;10.850;2023-06-19T01:32:27;26.10;46.00
41437;DHT22;27178;49.460;10.850;2023-06-19T01:34:57;26.00;45.90
41437;DHT22;27178;49.460;10.850;2023-06-19T01:37:28;25.90;45.80
41437;DHT22;27178;49.460;10.850;2023-06-19T01:40:02;25.90;45.80
41437;DHT22;27178;49.460;10.850;2023-06-19T01:42:34;25.90;46.10
41437;DHT22;27178;49.460;10.850;2023-06-19T01:45:05;25.80;46.30
41437;DHT22;27178;49.460;10.850;2023-06-19T01:47:33;25.80;46.30
41437;DHT22;27178;49.460;10.850;2023-06-19T01:50:02;25.80;46.50
41437;DHT22;27178;49.460;10.850;2023-06-19T01:52:32;25.80;46.40
41437;DHT22;27178;49.460;10.850;2023-06-19T01:55:00;25.80;46.40
41437;DHT22;27178;49.460;10.850;2023-06-19T01:57:30;25.80;46.50
41437;DHT22;27178;49.460;10.850;2023-06-19T01:59:58;25.80;46.20
41437;DHT22;27178;49.460;10.850;2023-06-19T02:02:26;25.80;46.40
41437;DHT22;27178;49.460;10.850;2023-06-19T02:04:56;25.70;46.50
41437;DHT22;27178;49.460;10.850;2023-06-19T02:07:24;25.70;46.70
41437;DHT22;27178;49.460;10.850;2023-06-19T02:09:54;25.70;46.40
41437;DHT22;27178;49.460;10.850;2023-06-19T02:12:24;25.70;46.40
41437;DHT22;27178;49.460;10.850;2023-06-19T02:14:52;25.70;46.20
41437;DHT22;27178;49.460;10.850;2023-06-19T02:17:20;25.70;46.60
41437;DHT22;27178;49.460;10.850;2023-06-19T02:19:49;25.70;46.10
41437;DHT22;27178;49.460;10.850;2023-06-19T02:22:18;25.70;46.20
41437;DHT22;27178;49.460;10.850;2023-06-19T02:24:46;25.60;46.10
41437;DHT22;27178;49.460;10.850;2023-06-19T02:27:16;25.60;46.20
41437;DHT22;27178;49.460;10.850;2023-06-19T02:29:44;25.60;46.30
41437;DHT22;27178;49.460;10.850;2023-06-19T02:32:13;25.60;46.40
41437;DHT22;27178;49.460;10.850;2023-06-19T02:34:41;25.60;46.30
41437;DHT22;27178;49.460;10.850;2023-06-19T02:37:10;25.60;46.30
41437;DHT22;27178;49.460;10.850;2023-06-19T02:39:38;25.50;46.60
41437;DHT22;27178;49.460;10.850;2023-06-19T02:42:07;25.50;46.80
41437;DHT22;27178;49.460;10.850;2023-06-19T02:44:37;25.50;47.20
41437;DHT22;27178;49.460;10.850;2023-06-19T02:47:06;25.50;47.30
41437;DHT22;27178;49.460;10.850;2023-06-19T02:49:34;25.40;47.20
41437;DHT22;27178;49.460;10.850;2023-06-19T02:52:04;25.40;47.20
41437;DHT22;27178;49.460;10.850;2023-06-19T02:54:32;25.40;47.60
41437;DHT22;27178;49.460;10.850;2023-06-19T02:57:01;25.50;47.00
41437;DHT22;27178;49.460;10.850;2023-06-19T02:59:30;25.50;46.80
41437;DHT22;27178;49.460;10.850;2023-06-19T03:02:01;25.50;46.90
41437;DHT22;27178;49.460;10.850;2023-06-19T03:04:29;25.40;46.80
41437;DHT22;27178;49.460;10.850;2023-06-19T03:06:58;25.40;46.80
41437;DHT22;27178;49.460;10.850;2023-06-19T03:09:26;25.40;47.00
41437;DHT22;27178;49.460;10.850;2023-06-19T03:11:55;25.40;47.20
41437;DHT22;27178;49.460;10.850;2023-06-19T03:14:23;25.40;47.40
41437;DHT22;27178;49.460;10.850;2023-06-19T03:16:52;25.40;47.60
41437;DHT22;27178;49.460;10.850;2023-06-19T03:19:21;25.40;47.60
41437;DHT22;27178;49.460;10.850;2023-06-19T03:21:50;25.40;47.60
41437;DHT22;27178;49.460;10.850;2023-06-19T03:24:18;25.40;47.50
41437;DHT22;27178;49.460;10.850;2023-06-19T03:26:47;25.40;47.40
41437;DHT22;27178;49.460;10.850;2023-06-19T03:29:16;25.30;47.50
41437;DHT22;27178;49.460;10.850;2023-06-19T03:31:44;25.30;47.50
41437;DHT22;27178;49.460;10.850;2023-06-19T03:34:12;25.30;47.70
41437;DHT22;27178;49.460;10.850;2023-06-19T03:36:42;25.30;47.40
41437;DHT22;27178;49.460;10.850;2023-06-19T03:39:10;25.30;47.60
41437;DHT22;27178;49.460;10.850;2023-06-19T03:41:38;25.20;47.80
41437;DHT22;27178;49.460;10.850;2023-06-19T03:44:07;25.20;48.00
41437;DHT22;27178;49.460;10.850;2023-06-19T03:46:35;25.20;47.80
41437;DHT22;27178;49.460;10.850;2023-06-19T03:49:03;25.20;48.10
41437;DHT22;27178;49.460;10.850;2023-06-19T03:51:33;25.20;48.10
41437;DHT22;27178;49.460;10.850;2023-06-19T03:54:03;25.20;48.30
41437;DHT22;27178;49.460;10.850;2023-06-19T03:56:31;25.20;48.70
41437;DHT22;27178;49.460;10.850;2023-06-19T03:58:59;25.20;48.30
41437;DHT22;27178;49.460;10.850;2023-06-19T04:01:28;25.20;48.00
41437;DHT22;27178;49.460;10.850;2023-06-19T04:03:56;25.20;48.30
41437;DHT22;27178;49.460;10.850;2023-06-19T04:06:25;25.20;48.20
41437;DHT22;27178;49.460;10.850;2023-06-19T04:08:53;25.20;48.20
41437;DHT22;27178;49.460;10.850;2023-06-19T04:11:23;25.20;49.10
41437;DHT22;27178;49.460;10.850;2023-06-19T04:13:51;25.30;48.50
41437;DHT22;27178;49.460;10.850;2023-06-19T04:16:20;25.30;48.80
41437;DHT22;27178;49.460;10.850;2023-06-19T04:18:48;25.30;48.80
41437;DHT22;27178;49.460;10.850;2023-06-19T04:21:17;25.30;48.80
41437;DHT22;27178;49.460;10.850;2023-06-19T04:23:45;25.30;48.60
41437;DHT22;27178;49.460;10.850;2023-06-19T04:26:14;25.30;48.90
41437;DHT22;27178;49.460;10.850;2023-06-19T04:28:44;25.30;48.70
41437;DHT22;27178;49.460;10.850;2023-06-19T04:31:12;25.30;48.70
41437;DHT22;27178;49.460;10.850;2023-06-19T04:33:45;25.30;48.70
41437;DHT22;27178;49.460;10.850;2023-06-19T04:36:14;25.30;48.90
41437;DHT22;27178;49.460;10.850;2023-06-19T04:38:42;25.30;48.70
41437;DHT22;27178;49.460;10.850;2023-06-19T04:41:11;25.30;48.60
41437;DHT22;27178;49.460;10.850;2023-06-19T04:43:40;25.30;48.50
41437;DHT22;27178;49.460;10.850;2023-06-19T04:46:10;25.30;48.80
41437;DHT22;27178;49.460;10.850;2023-06-19T04:48:38;25.40;49.20
41437;DHT22;27178;49.460;10.850;2023-06-19T04:51:08;25.40;49.00
41437;DHT22;27178;49.460;10.850;2023-06-19T04:53:36;25.40;48.60
41437;DHT22;27178;49.460;10.850;2023-06-19T04:56:05;25.40;49.10
41437;DHT22;27178;49.460;10.850;2023-06-19T04:58:35;25.40;49.00
41437;DHT22;27178;49.460;10.850;2023-06-19T05:01:06;25.40;49.20
41437;DHT22;27178;49.460;10.850;2023-06-19T05:03:39;25.40;49.20
41437;DHT22;27178;49.460;10.850;2023-06-19T05:06:08;25.40;49.40
41437;DHT22;27178;49.460;10.850;2023-06-19T05:08:36;25.40;49.60
41437;DHT22;27178;49.460;10.850;2023-06-19T05:11:04;25.40;49.60
41437;DHT22;27178;49.460;10.850;2023-06-19T05:13:32;25.40;49.60
41437;DHT22;27178;49.460;10.850;2023-06-19T05:16:01;25.40;50.00
41437;DHT22;27178;49.460;10.850;2023-06-19T05:18:29;25.40;49.80
41437;DHT22;27178;49.460;10.850;2023-06-19T05:20:59;25.40;49.90
41437;DHT22;27178;49.460;10.850;2023-06-19T05:23:27;25.40;49.90
41437;DHT22;27178;49.460;10.850;2023-06-19T05:25:56;25.40;49.60
41437;DHT22;27178;49.460;10.850;2023-06-19T05:28:24;25.40;49.80
41437;DHT22;27178;49.460;10.850;2023-06-19T05:30:52;25.50;50.00
41437;DHT22;27178;49.460;10.850;2023-06-19T05:33:21;25.50;49.90
41437;DHT22;27178;49.460;10.850;2023-06-19T05:35:50;25.50;50.10
41437;DHT22;27178;49.460;10.850;2023-06-19T05:38:22;25.50;50.00
41437;DHT22;27178;49.460;10.850;2023-06-19T05:40:53;25.50;50.30
41437;DHT22;27178;49.460;10.850;2023-06-19T05:43:21;25.50;50.20
41437;DHT22;27178;49.460;10.850;2023-06-19T05:45:51;25.60;50.40
41437;DHT22;27178;49.460;10.850;2023-06-19T05:48:20;25.60;50.60
41437;DHT22;27178;49.460;10.850;2023-06-19T05:50:48;25.60;50.40
41437;DHT22;27178;49.460;10.850;2023-06-19T05:53:16;25.60;50.40
41437;DHT22;27178;49.460;10.850;2023-06-19T05:55:46;25.70;50.60
41437;DHT22;27178;49.460;10.850;2023-06-19T05:58:14;25.70;50.70
41437;DHT22;27178;49.460;10.850;2023-06-19T06:00:46;25.70;51.00
41437;DHT22;27178;49.460;10.850;2023-06-19T06:03:15;25.70;51.00
41437;DHT22;27178;49.460;10.850;2023-06-19T06:05:43;25.70;51.00
41437;DHT22;27178;49.460;10.850;2023-06-19T06:08:16;25.80;51.40
41437;DHT22;27178;49.460;10.850;2023-06-19T06:10:46;25.70;51.50
41437;DHT22;27178;49.460;10.850;2023-06-19T06:13:15;25.80;51.30
41437;DHT22;27178;49.460;10.850;2023-06-19T06:15:43;25.80;51.70
41437;DHT22;27178;49.460;10.850;2023-06-19T06:18:11;25.80;51.70
41437;DHT22;27178;49.460;10.850;2023-06-19T06:20:40;25.80;52.00
41437;DHT22;27178;49.460;10.850;2023-06-19T06:23:09;25.90;52.20
41437;DHT22;27178;49.460;10.850;2023-06-19T06:25:37;25.90;52.10
41437;DHT22;27178;49.460;10.850;2023-06-19T06:28:07;25.90;52.20
41437;DHT22;27178;49.460;10.850;2023-06-19T06:30:35;25.90;52.20
41437;DHT22;27178;49.460;10.850;2023-06-19T06:33:04;25.90;52.30
41437;DHT22;27178;49.460;10.850;2023-06-19T06:35:32;25.90;52.40
41437;DHT22;27178;49.460;10.850;2023-06-19T06:38:02;25.90;52.70
41437;DHT22;27178;49.460;10.850;2023-06-19T06:40:31;25.90;52.70
41437;DHT22;27178;49.460;10.850;2023-06-19T06:42:59;25.90;52.90
41437;DHT22;27178;49.460;10.850;2023-06-19T06:45:29;26.00;52.90
41437;DHT22;27178;49.460;10.850;2023-06-19T06:47:58;26.00;52.90
41437;DHT22;27178;49.460;10.850;2023-06-19T06:50:27;26.00;52.60
41437;DHT22;27178;49.460;10.850;2023-06-19T06:52:55;26.00;53.00
41437;DHT22;27178;49.460;10.850;2023-06-19T06:55:23;26.00;53.10
41437;DHT22;27178;49.460;10.850;2023-06-19T06:57:51;26.00;53.20
41437;DHT22;27178;49.460;10.850;2023-06-19T07:00:20;26.00;53.20
41437;DHT22;27178;49.460;10.850;2023-06-19T07:02:51;26.00;53.20
41437;DHT22;27178;49.460;10.850;2023-06-19T07:05:19;26.10;53.50
41437;DHT22;27178;49.460;10.850;2023-06-19T07:07:48;26.10;53.40
41437;DHT22;27178;49.460;10.850;2023-06-19T07:10:16;26.10;53.40
41437;DHT22;27178;49.460;10.850;2023-06-19T07:12:45;26.10;53.40
41437;DHT22;27178;49.460;10.850;2023-06-19T07:15:14;26.20;53.60
41437;DHT22;27178;49.460;10.850;2023-06-19T07:17:43;26.20;54.20
41437;DHT22;27178;49.460;10.850;2023-06-19T07:20:14;26.20;53.70
41437;DHT22;27178;49.460;10.850;2023-06-19T07:22:43;26.20;53.70
41437;DHT22;27178;49.460;10.850;2023-06-19T07:25:12;26.20;53.70
41437;DHT22;27178;49.460;10.850;2023-06-19T07:27:40;26.20;53.80
41437;DHT22;27178;49.460;10.850;2023-06-19T07:30:09;26.30;53.70
41437;DHT22;27178;49.460;10.850;2023-06-19T07:32:42;26.30;53.70
41437;DHT22;27178;49.460;10.850;2023-06-19T07:35:10;26.30;53.70
41437;DHT22;27178;49.460;10.850;2023-06-19T07:37:41;26.30;53.70
41437;DHT22;27178;49.460;10.850;2023-06-19T07:40:10;26.40;53.90
41437;DHT22;27178;49.460;10.850;2023-06-19T07:42:39;26.40;53.80
41437;DHT22;27178;49.460;10.850;2023-06-19T07:45:11;26.40;53.90
41437;DHT22;27178;49.460;10.850;2023-06-19T07:47:40;26.40;53.90
41437;DHT22;27178;49.460;10.850;2023-06-19T07:50:09;26.40;54.00
41437;DHT22;27178;49.460;10.850;2023-06-19T07:52:37;26.40;53.90
41437;DHT22;27178;49.460;10.850;2023-06-19T07:55:07;26.40;54.00
41437;DHT22;27178;49.460;10.850;2023-06-19T07:57:36;26.40;54.00
41437;DHT22;27178;49.460;10.850;2023-06-19T08:00:05;26.40;53.90
41437;DHT22;27178;49.460;10.850;2023-06-19T08:02:38;26.40;54.00
41437;DHT22;27178;49.460;10.850;2023-06-19T08:05:08;26.40;54.00
41437;DHT22;27178;49.460;10.850;2023-06-19T08:07:38;26.50;54.20
41437;DHT22;27178;49.460;10.850;2023-06-19T08:10:08;26.50;54.40
41437;DHT22;27178;49.460;10.850;2023-06-19T08:12:41;26.50;54.30
41437;DHT22;27178;49.460;10.850;2023-06-19T08:15:10;26.50;54.30
41437;DHT22;27178;49.460;10.850;2023-06-19T08:17:41;26.50;54.50
41437;DHT22;27178;49.460;10.850;2023-06-19T08:20:10;26.60;54.40
41437;DHT22;27178;49.460;10.850;2023-06-19T08:22:38;26.60;54.20
41437;DHT22;27178;49.460;10.850;2023-06-19T08:25:08;26.70;53.80
41437;DHT22;27178;49.460;10.850;2023-06-19T08:27:37;26.70;53.70
41437;DHT22;27178;49.460;10.850;2023-06-19T08:30:07;26.70;53.60
41437;DHT22;27178;49.460;10.850;2023-06-19T08:32:35;26.80;53.80
41437;DHT22;27178;49.460;10.850;2023-06-19T08:35:05;26.80;53.40
41437;DHT22;27178;49.460;10.850;2023-06-19T08:37:33;26.80;53.40
41437;DHT22;27178;49.460;10.850;2023-06-19T08:40:01;26.80;52.90
41437;DHT22;27178;49.460;10.850;2023-06-19T08:42:33;26.80;52.90
41437;DHT22;27178;49.460;10.850;2023-06-19T08:45:01;26.90;52.60
41437;DHT22;27178;49.460;10.850;2023-06-19T08:47:31;26.90;52.70
41437;DHT22;27178;49.460;10.850;2023-06-19T08:50:00;26.90;53.30
41437;DHT22;27178;49.460;10.850;2023-06-19T08:52:30;26.90;52.90
41437;DHT22;27178;49.460;10.850;2023-06-19T08:54:59;26.90;52.70
41437;DHT22;27178;49.460;10.850;2023-06-19T08:57:39;27.00;52.70
41437;DHT22;27178;49.460;10.850;2023-06-19T09:00:08;27.00;52.90
41437;DHT22;27178;49.460;10.850;2023-06-19T09:02:40;27.00;53.00
41437;DHT22;27178;49.460;10.850;2023-06-19T09:05:13;27.00;52.80
41437;DHT22;27178;49.460;10.850;2023-06-19T09:07:43;27.00;52.80
41437;DHT22;27178;49.460;10.850;2023-06-19T09:10:17;27.00;52.70
41437;DHT22;27178;49.460;10.850;2023-06-19T09:12:57;27.00;52.70
41437;DHT22;27178;49.460;10.850;2023-06-19T09:15:30;27.10;52.40
41437;DHT22;27178;49.460;10.850;2023-06-19T09:18:03;27.10;53.60
41437;DHT22;27178;49.460;10.850;2023-06-19T09:20:33;27.20;53.00
41437;DHT22;27178;49.460;10.850;2023-06-19T09:23:01;27.20;52.80
41437;DHT22;27178;49.460;10.850;2023-06-19T09:25:31;27.20;52.70
41437;DHT22;27178;49.460;10.850;2023-06-19T09:28:01;27.20;52.30
41437;DHT22;27178;49.460;10.850;2023-06-19T09:30:30;27.30;52.50
41437;DHT22;27178;49.460;10.850;2023-06-19T09:33:06;27.30;52.30
41437;DHT22;27178;49.460;10.850;2023-06-19T09:35:35;27.30;52.50
41437;DHT22;27178;49.460;10.850;2023-06-19T09:38:03;27.40;52.30
41437;DHT22;27178;49.460;10.850;2023-06-19T09:40:32;27.40;52.50
41437;DHT22;27178;49.460;10.850;2023-06-19T09:43:03;27.40;53.00
41437;DHT22;27178;49.460;10.850;2023-06-19T09:45:33;27.40;52.70
41437;DHT22;27178;49.460;10.850;2023-06-19T09:48:02;27.50;52.40
41437;DHT22;27178;49.460;10.850;2023-06-19T09:50:32;27.50;52.70
41437;DHT22;27178;49.460;10.850;2023-06-19T09:53:01;27.50;52.40
41437;DHT22;27178;49.460;10.850;2023-06-19T09:55:32;27.60;52.50
41437;DHT22;27178;49.460;10.850;2023-06-19T09:58:02;27.60;52.90
41437;DHT22;27178;49.460;10.850;2023-06-19T10:00:33;27.60;52.40
41437;DHT22;27178;49.460;10.850;2023-06-19T10:03:02;27.70;52.40
41437;DHT22;27178;49.460;10.850;2023-06-19T10:05:32;27.70;52.30
41437;DHT22;27178;49.460;10.850;2023-06-19T10:08:03;27.80;52.60
41437;DHT22;27178;49.460;10.850;2023-06-19T10:10:32;27.80;52.40
41437;DHT22;27178;49.460;10.850;2023-06-19T10:13:14;27.90;52.60
41437;DHT22;27178;49.460;10.850;2023-06-19T10:15:44;27.90;52.30
41437;DHT22;27178;49.460;10.850;2023-06-19T10:18:15;28.00;52.10
41437;DHT22;27178;49.460;10.850;2023-06-19T10:20:45;28.10;52.10
41437;DHT22;27178;49.460;10.850;2023-06-19T10:23:16;28.10;52.80
41437;DHT22;27178;49.460;10.850;2023-06-19T10:25:48;28.20;51.80
41437;DHT22;27178;49.460;10.850;2023-06-19T10:28:20;28.30;51.70
41437;DHT22;27178;49.460;10.850;2023-06-19T10:30:53;28.30;51.60
41437;DHT22;27178;49.460;10.850;2023-06-19T10:33:23;28.40;51.50
41437;DHT22;27178;49.460;10.850;2023-06-19T10:35:52;28.40;51.20
41437;DHT22;27178;49.460;10.850;2023-06-19T10:38:21;28.50;51.00
41437;DHT22;27178;49.460;10.850;2023-06-19T10:40:49;28.60;50.90
41437;DHT22;27178;49.460;10.850;2023-06-19T10:43:23;28.60;50.90
41437;DHT22;27178;49.460;10.850;2023-06-19T10:45:55;28.60;51.00
41437;DHT22;27178;49.460;10.850;2023-06-19T10:48:24;28.70;51.20
41437;DHT22;27178;49.460;10.850;2023-06-19T10:50:52;28.70;51.30
41437;DHT22;27178;49.460;10.850;2023-06-19T10:53:25;28.70;51.10
41437;DHT22;27178;49.460;10.850;2023-06-19T10:55:57;28.70;50.80
41437;DHT22;27178;49.460;10.850;2023-06-19T10:58:28;28.80;50.50
41437;DHT22;27178;49.460;10.850;2023-06-19T11:00:56;28.80;51.40
41437;DHT22;27178;49.460;10.850;2023-06-19T11:03:24;28.80;51.00
41437;DHT22;27178;49.460;10.850;2023-06-19T11:05:53;28.90;50.90
41437;DHT22;27178;49.460;10.850;2023-06-19T11:08:21;29.00;50.90
41437;DHT22;27178;49.460;10.850;2023-06-19T11:10:50;29.10;50.80
41437;DHT22;27178;49.460;10.850;2023-06-19T11:13:19;29.10;51.00
41437;DHT22;27178;49.460;10.850;2023-06-19T11:15:49;29.20;51.10
41437;DHT22;27178;49.460;10.850;2023-06-19T11:18:19;29.30;51.10
41437;DHT22;27178;49.460;10.850;2023-06-19T11:20:49;29.40;51.30
41437;DHT22;27178;49.460;10.850;2023-06-19T11:23:25;29.60;51.30
41437;DHT22;27178;49.460;10.850;2023-06-19T11:26:02;29.70;51.40
41437;DHT22;27178;49.460;10.850;2023-06-19T11:28:31;29.80;51.10
41437;DHT22;27178;49.460;10.850;2023-06-19T11:31:02;30.00;51.20
41437;DHT22;27178;49.460;10.850;2023-06-19T11:33:31;30.10;51.10
41437;DHT22;27178;49.460;10.850;2023-06-19T11:36:01;30.20;51.00
41437;DHT22;27178;49.460;10.850;2023-06-19T11:38:30;30.40;50.80
41437;DHT22;27178;49.460;10.850;2023-06-19T11:40:58;30.50;50.20
41437;DHT22;27178;49.460;10.850;2023-06-19T11:43:27;30.60;50.30
41437;DHT22;27178;49.460;10.850;2023-06-19T11:46:02;30.60;50.20
41437;DHT22;27178;49.460;10.850;2023-06-19T11:48:30;30.80;50.10
41437;DHT22;27178;49.460;10.850;2023-06-19T11:50:59;30.90;50.20
41437;DHT22;27178;49.460;10.850;2023-06-19T11:53:27;31.00;50.10
41437;DHT22;27178;49.460;10.850;2023-06-19T11:55:55;31.20;49.80
41437;DHT22;27178;49.460;10.850;2023-06-19T11:58:24;31.30;49.60
41437;DHT22;27178;49.460;10.850;2023-06-19T12:00:53;31.30;49.40
41437;DHT22;27178;49.460;10.850;2023-06-19T12:03:25;31.30;49.20
41437;DHT22;27178;49.460;10.850;2023-06-19T12:05:54;31.40;49.20
41437;DHT22;27178;49.460;10.850;2023-06-19T12:08:23;31.40;49.30
41437;DHT22;27178;49.460;10.850;2023-06-19T12:10:52;31.40;49.10
41437;DHT22;27178;49.460;10.850;2023-06-19T12:13:20;31.50;48.70
41437;DHT22;27178;49.460;10.850;2023-06-19T12:15:48;31.50;48.80
41437;DHT22;27178;49.460;10.850;2023-06-19T12:18:20;31.50;48.90
41437;DHT22;27178;49.460;10.850;2023-06-19T12:20:50;31.50;48.80
41437;DHT22;27178;49.460;10.850;2023-06-19T12:23:18;31.40;48.70
41437;DHT22;27178;49.460;10.850;2023-06-19T12:25:47;31.40;48.70
41437;DHT22;27178;49.460;10.850;2023-06-19T12:28:15;31.40;48.60
41437;DHT22;27178;49.460;10.850;2023-06-19T12:30:46;31.40;48.60
41437;DHT22;27178;49.460;10.850;2023-06-19T12:33:15;31.40;48.90
41437;DHT22;27178;49.460;10.850;2023-06-19T12:35:45;31.50;49.10
41437;DHT22;27178;49.460;10.850;2023-06-19T12:38:14;31.50;49.00
41437;DHT22;27178;49.460;10.850;2023-06-19T12:40:43;31.60;49.80
41437;DHT22;27178;49.460;10.850;2023-06-19T12:43:12;31.80;48.80
41437;DHT22;27178;49.460;10.850;2023-06-19T12:45:40;31.90;48.80
41437;DHT22;27178;49.460;10.850;2023-06-19T12:48:10;31.90;48.80
41437;DHT22;27178;49.460;10.850;2023-06-19T12:50:39;31.90;48.70
41437;DHT22;27178;49.460;10.850;2023-06-19T12:53:07;32.00;48.60
41437;DHT22;27178;49.460;10.850;2023-06-19T12:55:37;32.10;48.80
41437;DHT22;27178;49.460;10.850;2023-06-19T12:58:25;32.10;48.70
41437;DHT22;27178;49.460;10.850;2023-06-19T13:00:54;32.20;48.80
41437;DHT22;27178;49.460;10.850;2023-06-19T13:03:22;32.40;48.90
41437;DHT22;27178;49.460;10.850;2023-06-19T13:05:51;32.50;48.70
41437;DHT22;27178;49.460;10.850;2023-06-19T13:08:19;32.60;48.60
41437;DHT22;27178;49.460;10.850;2023-06-19T13:10:49;32.70;48.40
41437;DHT22;27178;49.460;10.850;2023-06-19T13:13:18;32.80;48.30
41437;DHT22;27178;49.460;10.850;2023-06-19T13:15:46;32.90;47.80
41437;DHT22;27178;49.460;10.850;2023-06-19T13:18:15;33.00;48.00
41437;DHT22;27178;49.460;10.850;2023-06-19T13:20:43;33.00;47.60
41437;DHT22;27178;49.460;10.850;2023-06-19T13:23:14;33.00;47.40
41437;DHT22;27178;49.460;10.850;2023-06-19T13:25:43;33.00;47.10
41437;DHT22;27178;49.460;10.850;2023-06-19T13:28:13;33.00;47.00
41437;DHT22;27178;49.460;10.850;2023-06-19T13:30:42;32.80;46.90
41437;DHT22;27178;49.460;10.850;2023-06-19T13:33:10;32.80;47.10
41437;DHT22;27178;49.460;10.850;2023-06-19T13:35:39;32.70;47.10
41437;DHT22;27178;49.460;10.850;2023-06-19T13:38:08;32.60;47.10
41437;DHT22;27178;49.460;10.850;2023-06-19T13:40:36;32.50;47.20
41437;DHT22;27178;49.460;10.850;2023-06-19T13:43:05;32.40;47.50
41437;DHT22;27178;49.460;10.850;2023-06-19T13:45:34;32.30;47.40
41437;DHT22;27178;49.460;10.850;2023-06-19T13:48:06;32.20;47.90
41437;DHT22;27178;49.460;10.850;2023-06-19T13:50:34;32.20;48.30
41437;DHT22;27178;49.460;10.850;2023-06-19T13:53:02;32.10;48.60
41437;DHT22;27178;49.460;10.850;2023-06-19T13:55:31;32.00;49.00
41437;DHT22;27178;49.460;10.850;2023-06-19T13:57:59;32.00;49.20
41437;DHT22;27178;49.460;10.850;2023-06-19T14:00:28;31.90;49.70
41437;DHT22;27178;49.460;10.850;2023-06-19T14:02:58;31.90;51.00
41437;DHT22;27178;49.460;10.850;2023-06-19T14:05:27;31.80;51.30
41437;DHT22;27178;49.460;10.850;2023-06-19T14:07:56;31.80;51.40
41437;DHT22;27178;49.460;10.850;2023-06-19T14:10:24;31.90;51.80
41437;DHT22;27178;49.460;10.850;2023-06-19T14:12:52;31.90;51.90
41437;DHT22;27178;49.460;10.850;2023-06-19T14:15:22;32.00;52.10
41437;DHT22;27178;49.460;10.850;2023-06-19T14:17:50;32.20;52.30
41437;DHT22;27178;49.460;10.850;2023-06-19T14:20:21;32.30;52.80
41437;DHT22;27178;49.460;10.850;2023-06-19T14:22:49;32.40;52.50
41437;DHT22;27178;49.460;10.850;2023-06-19T14:25:17;32.50;53.40
41437;DHT22;27178;49.460;10.850;2023-06-19T14:27:46;32.50;53.10
41437;DHT22;27178;49.460;10.850;2023-06-19T14:30:14;32.40;53.80
41437;DHT22;27178;49.460;10.850;2023-06-19T14:32:42;32.40;53.70
41437;DHT22;27178;49.460;10.850;2023-06-19T14:35:11;32.40;53.50
41437;DHT22;27178;49.460;10.850;2023-06-19T14:37:41;32.40;53.30
41437;DHT22;27178;49.460;10.850;2023-06-19T14:40:09;32.50;53.40
41437;DHT22;27178;49.460;10.850;2023-06-19T14:42:38;32.60;53.30
41437;DHT22;27178;49.460;10.850;2023-06-19T14:45:08;32.70;53.20
41437;DHT22;27178;49.460;10.850;2023-06-19T14:47:36;32.80;52.70
41437;DHT22;27178;49.460;10.850;2023-06-19T14:50:06;32.80;52.20
41437;DHT22;27178;49.460;10.850;2023-06-19T14:52:35;32.80;52.10
41437;DHT22;27178;49.460;10.850;2023-06-19T14:55:05;32.80;52.30
41437;DHT22;27178;49.460;10.850;2023-06-19T14:57:35;32.90;52.20
41437;DHT22;27178;49.460;10.850;2023-06-19T15:00:05;32.80;52.30
41437;DHT22;27178;49.460;10.850;2023-06-19T15:02:34;32.80;51.90
41437;DHT22;27178;49.460;10.850;2023-06-19T15:05:07;32.70;51.20
41437;DHT22;27178;49.460;10.850;2023-06-19T15:07:35;32.70;51.00
41437;DHT22;27178;49.460;10.850;2023-06-19T15:10:06;32.50;50.80
41437;DHT22;27178;49.460;10.850;2023-06-19T15:12:34;32.40;50.80
41437;DHT22;27178;49.460;10.850;2023-06-19T15:15:03;32.30;50.70
41437;DHT22;27178;49.460;10.850;2023-06-19T15:17:31;32.20;50.70
41437;DHT22;27178;49.460;10.850;2023-06-19T15:20:00;32.10;50.40
41437;DHT22;27178;49.460;10.850;2023-06-19T15:22:28;31.90;50.20
41437;DHT22;27178;49.460;10.850;2023-06-19T15:24:56;31.80;50.50
41437;DHT22;27178;49.460;10.850;2023-06-19T15:27:26;31.70;50.70
41437;DHT22;27178;49.460;10.850;2023-06-19T15:29:54;31.60;51.10